Flight Track Log - Related Links

Times and Time Zones

All times are in EDT time to prevent confusion due to time zone crossing. See the EJA658 flight status page for this flight to view local times or setup timezone preferences in your user account.

Time Position Orientation Groundspeed Altitude Reporting Facility
EDT Latitude Longitude Course Direction KTS MPH feet Rate Location/Type
Thu 08:14:33 AM 39.1500 -76.6500 288° West 181 208 3,000  Level Potomac TRACON
Thu 08:15:33 AM 39.1667 -76.7167 288° West 232 267 6,600 3,100 Climbing Potomac TRACON
Thu 08:16:33 AM 39.2000 -76.8000 297° West 261 300 9,200 2,650 Climbing Potomac TRACON
Thu 08:17:33 AM 39.2000 -76.9167 270° West 304 350 11,900 3,100 Climbing Potomac TRACON
Thu 08:18:33 AM 39.2167 -77.0167 282° West 292 336 15,400 2,550 Climbing Potomac TRACON
Thu 08:19:33 AM 39.2000 -77.1167 258° West 331 381 17,000 1,150 Climbing Potomac TRACON
Thu 08:20:33 AM 39.1167 -77.2000 218° Southwest 356 410 17,700 1,500 Climbing Potomac TRACON
Thu 08:21:33 AM 39.0333 -77.2500 205° Southwest 344 396 20,000 2,105 Climbing Potomac TRACON
Thu 08:22:27 AM 38.9500 -77.3000 205° Southwest 356 410 21,700 1,071 Climbing Potomac TRACON
Thu 08:24:21 AM 38.7769 -77.3839 201° Southwest 390 449 23,000 1,234 Climbing Washington Center
Thu 08:25:22 AM 38.6742 -77.4317 200° South 398 458 25,300 1,934 Climbing Washington Center
Thu 08:26:22 AM 38.5733 -77.4825 202° Southwest 398 458 26,900 836 Climbing Washington Center
Thu 08:27:24 AM 38.4536 -77.5403 201° Southwest 405 466 27,000 350 Climbing Washington Center
Thu 08:28:22 AM 38.3519 -77.6331 216° Southwest 434 499 27,600 814 Climbing Washington Center
Thu 08:29:22 AM 38.2725 -77.7553 230° Southwest 434 499 28,600 992 Climbing Washington Center
Thu 08:30:23 AM 38.1975 -77.8744 231° Southwest 439 505 29,600 689 Climbing Washington Center
Thu 08:31:24 AM 38.1200 -77.9908 230° Southwest 439 505 30,000 202 Climbing Washington Center
Thu 08:32:22 AM 38.0425 -78.1125 231° Southwest 444 511 30,000  Level Washington Center
Thu 08:33:23 AM 37.9778 -78.2131 231° Southwest 433 498 30,000  Level Washington Center
Thu 08:34:23 AM 37.8981 -78.3261 228° Southwest 426 490 30,000  Level Washington Center
Thu 08:35:24 AM 37.8119 -78.4492 228° Southwest 432 497 30,000  Level Washington Center
Thu 08:36:23 AM 37.7342 -78.5592 228° Southwest 426 490 30,000  Level Washington Center
Thu 08:37:22 AM 37.6539 -78.6739 229° Southwest 426 490 30,000  Level Washington Center
Thu 08:38:23 AM 37.5758 -78.7861 229° Southwest 426 490 30,000  Level Washington Center
Thu 08:39:24 AM 37.5022 -78.8878 228° Southwest 432 497 30,000  Level Washington Center
Thu 08:40:21 AM 37.4219 -78.9992 228° Southwest 432 497 30,000  Level Washington Center
Thu 08:41:23 AM 37.3414 -79.1133 228° Southwest 432 497 30,000  Level Washington Center
Thu 08:42:23 AM 37.2589 -79.2242 227° Southwest 432 497 30,000  Level Washington Center
Thu 08:43:24 AM 37.1603 -79.3133 216° Southwest 432 497 30,000  Level Washington Center
Thu 08:44:24 AM 37.0617 -79.3972 214° Southwest 432 497 30,000  Level Washington Center
Thu 08:45:22 AM 36.9503 -79.4878 213° Southwest 432 497 30,000  Level Washington Center
Thu 08:46:23 AM 36.8517 -79.5686 213° Southwest 432 497 30,000  Level Washington Center
Thu 08:47:22 AM 36.7550 -79.6492 214° Southwest 432 497 30,000 -706 Level Washington Center
Thu 08:49:13 AM 36.5811 -79.7861 212° Southwest 415 478 28,000 -1,509 Descending Atlanta Center
Thu 08:50:13 AM 36.4797 -79.8689 213° Southwest 428 493 25,700 -2,500 Descending Atlanta Center
Thu 08:51:13 AM 36.3681 -79.9622 214° Southwest 441 507 23,000 -1,850 Descending Atlanta Center
Thu 08:52:13 AM 36.2725 -80.0392 213° Southwest 435 501 22,000 -1,050 Descending Atlanta Center
Thu 08:53:13 AM 36.1772 -80.1211 215° Southwest 423 487 20,900 -1,500 Descending Atlanta Center
Thu 08:54:13 AM 36.0858 -80.1975 214° Southwest 411 473 19,000 -1,750 Descending Atlanta Center
Thu 08:55:13 AM 36.0064 -80.2656 215° Southwest 401 461 17,400 -1,950 Descending Atlanta Center
Thu 08:56:13 AM 35.9111 -80.3519 216° Southwest 395 455 15,100 -2,250 Descending Atlanta Center
Thu 08:56:33 AM 35.8767 -80.3817 215° Southwest 386 444 14,400 -1,900 Descending Atlanta Center
Thu 08:57:13 AM 35.8236 -80.4275 215° Southwest 390 449 13,200 -1,377 Descending Atlanta Center
Thu 08:57:34 AM 35.7931 -80.4519 213° Southwest 371 427 13,000 -700 Descending Atlanta Center
Thu 08:58:13 AM 35.7483 -80.4897 214° Southwest 385 443 12,500 -1,279 Descending Atlanta Center
Thu 08:58:35 AM 35.7097 -80.5222 214° Southwest 359 413 11,700 -1,500 Descending Atlanta Center
Thu 08:59:13 AM 35.6667 -80.5572 213° Southwest 373 429 11,000 -1,377 Descending Atlanta Center
Thu 08:59:36 AM 35.6281 -80.5922 216° Southwest 349 402 10,300 -1,100 Descending Atlanta Center
Thu 09:00:13 AM 35.5872 -80.6244 213° Southwest 362 417 9,900 -300 Descending Atlanta Center
Thu 09:00:36 AM 35.5486 -80.6567 214° Southwest 342 394 10,000  Climbing Atlanta Center
Thu 09:01:13 AM 35.5078 -80.6917 215° Southwest 356 410 9,900 -98 Descending Atlanta Center
Thu 09:01:37 AM 35.4711 -80.7211 213° Southwest 341 392 9,900  Level Atlanta Center
Thu 09:02:13 AM 35.4281 -80.7558 213° Southwest 351 404 9,900 -98 Level Atlanta Center
Thu 09:02:38 AM 35.3956 -80.7853 216° Southwest 331 381 9,800 -600 Descending Atlanta Center
Thu 09:03:13 AM 35.3525 -80.8175 211° Southwest 329 379 9,300 -787 Descending Atlanta Center
Thu 09:03:39 AM 35.3242 -80.8417 215° Southwest 273 314 9,000 -400 Descending Atlanta Center
Thu 09:04:13 AM 35.2822 -80.8406 179° South 267 307 8,900 -82 Descending Atlanta Center
Thu 09:04:52 AM 35.2381 -80.8297 169° South 260 299 8,900  Level Atlanta Center
Thu 09:05:13 AM 35.2108 -80.8231 169° South 255 293 8,900 -787 Level Atlanta Center
Thu 09:05:53 AM 35.1731 -80.8169 172° South 228 262 8,100 -1,560 Descending Atlanta Center
Thu 09:06:53 AM 35.1083 -80.8067 173° South 221 254 6,300 -1,041 Descending Atlanta Center
Thu 09:07:54 AM 35.0433 -80.7967 173° South 215 247 6,000 -639 Descending Atlanta Center
Thu 09:08:55 AM 34.9886 -80.7861 171° South 207 238 5,000 -984 Descending Atlanta Center
Thu 09:09:56 AM 34.9344 -80.7806 175° South 196 226 4,000 -517 Descending Atlanta Center
Thu 09:10:51 AM 34.9192 -80.8394 252° West 201 231 4,000  Level Atlanta Center
Thu 09:11:58 AM 34.9314 -80.9047 283° West 204 235 4,000  Level Atlanta Center
Thu 09:12:53 AM 34.9775 -80.9183 346° North 190 219 4,000  Level Atlanta Center
Thu 09:13:48 AM 35.0256 -80.9242 354° North 189 217 4,000 -470 Level Atlanta Center
Thu 09:14:48 AM 35.0778 -80.9247 360° North 187 215 3,100 -893 Descending Atlanta Center
Thu 09:15:49 AM 35.1281 -80.9306 355° North 180 207 2,200 -797 Descending Atlanta Center
Thu 09:16:56 AM 35.1658 -80.9342 356° North 102 117 1,400 -639 Descending Atlanta Center
Thu 09:17:51 AM 35.1950 -80.9356 358° North 108 124 900 -545 Descending Atlanta Center
Thu 09:19:00 AM 35.2000 -80.9333 344° North  Level FlightAware Approximate
Thu 09:26:00 AM 35.2137 -80.9491 344° North  Level Estimated

Login

Don't have an account? Register now (free) for customized features, flight alerts, and more!